sensor_id;sensor_type;location;lat;lon;timestamp;P1;durP1;ratioP1;P2;durP2;ratioP2
22904;SDS011;11619;50.140;8.518;2022-11-15T00:00:33;10.05;;;8.90;;
22904;SDS011;11619;50.140;8.518;2022-11-15T00:03:00;12.15;;;10.23;;
22904;SDS011;11619;50.140;8.518;2022-11-15T00:05:26;12.13;;;9.75;;
22904;SDS011;11619;50.140;8.518;2022-11-15T00:07:53;13.43;;;9.45;;
22904;SDS011;11619;50.140;8.518;2022-11-15T00:10:21;13.75;;;10.45;;
22904;SDS011;11619;50.140;8.518;2022-11-15T00:12:48;13.15;;;10.63;;
22904;SDS011;11619;50.140;8.518;2022-11-15T00:15:15;11.15;;;9.95;;
22904;SDS011;11619;50.140;8.518;2022-11-15T00:17:41;10.68;;;8.90;;
22904;SDS011;11619;50.140;8.518;2022-11-15T00:20:08;12.15;;;9.68;;
22904;SDS011;11619;50.140;8.518;2022-11-15T00:22:34;11.52;;;9.85;;
22904;SDS011;11619;50.140;8.518;2022-11-15T00:25:01;13.52;;;10.50;;
22904;SDS011;11619;50.140;8.518;2022-11-15T00:27:27;11.68;;;10.00;;
22904;SDS011;11619;50.140;8.518;2022-11-15T00:29:53;13.10;;;9.93;;
22904;SDS011;11619;50.140;8.518;2022-11-15T00:32:20;14.95;;;10.15;;
22904;SDS011;11619;50.140;8.518;2022-11-15T00:34:46;12.93;;;9.88;;
22904;SDS011;11619;50.140;8.518;2022-11-15T00:37:12;11.57;;;9.93;;
22904;SDS011;11619;50.140;8.518;2022-11-15T00:39:39;11.65;;;9.80;;
22904;SDS011;11619;50.140;8.518;2022-11-15T00:42:05;11.38;;;9.48;;
22904;SDS011;11619;50.140;8.518;2022-11-15T00:44:32;11.45;;;9.13;;
22904;SDS011;11619;50.140;8.518;2022-11-15T00:46:58;10.82;;;9.45;;
22904;SDS011;11619;50.140;8.518;2022-11-15T00:49:24;12.32;;;9.00;;
22904;SDS011;11619;50.140;8.518;2022-11-15T00:51:51;9.95;;;8.68;;
22904;SDS011;11619;50.140;8.518;2022-11-15T00:54:17;10.73;;;8.85;;
22904;SDS011;11619;50.140;8.518;2022-11-15T00:56:43;9.23;;;8.07;;
22904;SDS011;11619;50.140;8.518;2022-11-15T00:59:10;12.85;;;9.75;;
22904;SDS011;11619;50.140;8.518;2022-11-15T01:01:36;10.60;;;9.25;;
22904;SDS011;11619;50.140;8.518;2022-11-15T01:04:02;11.52;;;9.23;;
22904;SDS011;11619;50.140;8.518;2022-11-15T01:06:29;12.23;;;8.50;;
22904;SDS011;11619;50.140;8.518;2022-11-15T01:08:55;10.48;;;8.70;;
22904;SDS011;11619;50.140;8.518;2022-11-15T01:11:21;15.95;;;9.50;;
22904;SDS011;11619;50.140;8.518;2022-11-15T01:13:48;9.32;;;8.43;;
22904;SDS011;11619;50.140;8.518;2022-11-15T01:16:16;11.15;;;8.57;;
22904;SDS011;11619;50.140;8.518;2022-11-15T01:18:44;12.52;;;8.43;;
22904;SDS011;11619;50.140;8.518;2022-11-15T01:21:13;10.57;;;8.65;;
22904;SDS011;11619;50.140;8.518;2022-11-15T01:23:41;9.73;;;8.02;;
22904;SDS011;11619;50.140;8.518;2022-11-15T01:26:09;9.88;;;8.20;;
22904;SDS011;11619;50.140;8.518;2022-11-15T01:28:37;9.52;;;8.48;;
22904;SDS011;11619;50.140;8.518;2022-11-15T01:31:13;9.50;;;8.50;;
22904;SDS011;11619;50.140;8.518;2022-11-15T01:33:41;7.50;;;6.80;;
22904;SDS011;11619;50.140;8.518;2022-11-15T01:36:08;9.90;;;8.13;;
22904;SDS011;11619;50.140;8.518;2022-11-15T01:38:44;9.10;;;7.70;;
22904;SDS011;11619;50.140;8.518;2022-11-15T01:41:17;9.82;;;8.65;;
22904;SDS011;11619;50.140;8.518;2022-11-15T01:43:46;11.90;;;9.15;;
22904;SDS011;11619;50.140;8.518;2022-11-15T01:48:49;11.48;;;10.05;;
22904;SDS011;11619;50.140;8.518;2022-11-15T01:51:18;11.75;;;9.07;;
22904;SDS011;11619;50.140;8.518;2022-11-15T01:53:47;14.05;;;9.50;;
22904;SDS011;11619;50.140;8.518;2022-11-15T01:56:16;9.60;;;7.93;;
22904;SDS011;11619;50.140;8.518;2022-11-15T01:58:46;9.32;;;8.32;;
22904;SDS011;11619;50.140;8.518;2022-11-15T02:01:13;10.40;;;9.40;;
22904;SDS011;11619;50.140;8.518;2022-11-15T02:03:41;8.95;;;7.35;;
22904;SDS011;11619;50.140;8.518;2022-11-15T02:06:18;11.43;;;9.20;;
22904;SDS011;11619;50.140;8.518;2022-11-15T02:08:46;9.45;;;8.43;;
22904;SDS011;11619;50.140;8.518;2022-11-15T02:11:13;9.50;;;8.45;;
22904;SDS011;11619;50.140;8.518;2022-11-15T02:13:39;10.05;;;9.07;;
22904;SDS011;11619;50.140;8.518;2022-11-15T02:16:09;9.25;;;8.27;;
22904;SDS011;11619;50.140;8.518;2022-11-15T02:18:43;10.80;;;8.35;;
22904;SDS011;11619;50.140;8.518;2022-11-15T02:24:24;8.95;;;8.05;;
22904;SDS011;11619;50.140;8.518;2022-11-15T02:27:29;11.15;;;8.45;;
22904;SDS011;11619;50.140;8.518;2022-11-15T02:30:23;11.45;;;9.27;;
22904;SDS011;11619;50.140;8.518;2022-11-15T02:32:51;8.77;;;7.88;;
22904;SDS011;11619;50.140;8.518;2022-11-15T02:35:32;9.20;;;7.00;;
22904;SDS011;11619;50.140;8.518;2022-11-15T02:40:52;9.35;;;7.93;;
22904;SDS011;11619;50.140;8.518;2022-11-15T02:46:25;9.38;;;7.55;;
22904;SDS011;11619;50.140;8.518;2022-11-15T02:49:22;15.65;;;8.90;;
22904;SDS011;11619;50.140;8.518;2022-11-15T02:51:50;11.38;;;7.75;;
22904;SDS011;11619;50.140;8.518;2022-11-15T02:54:20;9.40;;;7.82;;
22904;SDS011;11619;50.140;8.518;2022-11-15T02:56:52;12.07;;;8.88;;
22904;SDS011;11619;50.140;8.518;2022-11-15T03:02:18;12.38;;;9.27;;
22904;SDS011;11619;50.140;8.518;2022-11-15T03:08:09;10.63;;;9.20;;
22904;SDS011;11619;50.140;8.518;2022-11-15T03:10:14;9.48;;;8.45;;
22904;SDS011;11619;50.140;8.518;2022-11-15T03:15:28;11.57;;;10.25;;
22904;SDS011;11619;50.140;8.518;2022-11-15T03:18:01;12.20;;;9.85;;
22904;SDS011;11619;50.140;8.518;2022-11-15T03:20:28;10.68;;;9.52;;
22904;SDS011;11619;50.140;8.518;2022-11-15T03:22:56;11.45;;;9.02;;
22904;SDS011;11619;50.140;8.518;2022-11-15T03:25:26;10.98;;;8.80;;
22904;SDS011;11619;50.140;8.518;2022-11-15T03:27:55;11.93;;;9.40;;
22904;SDS011;11619;50.140;8.518;2022-11-15T03:30:23;12.05;;;9.27;;
22904;SDS011;11619;50.140;8.518;2022-11-15T03:32:52;12.05;;;8.90;;
22904;SDS011;11619;50.140;8.518;2022-11-15T03:35:22;10.98;;;8.68;;
22904;SDS011;11619;50.140;8.518;2022-11-15T03:38:00;12.13;;;9.27;;
22904;SDS011;11619;50.140;8.518;2022-11-15T03:40:40;11.02;;;7.95;;
22904;SDS011;11619;50.140;8.518;2022-11-15T03:45:45;9.80;;;8.45;;
22904;SDS011;11619;50.140;8.518;2022-11-15T03:48:14;9.63;;;8.55;;
22904;SDS011;11619;50.140;8.518;2022-11-15T03:50:43;9.77;;;8.77;;
22904;SDS011;11619;50.140;8.518;2022-11-15T03:53:09;9.15;;;8.05;;
22904;SDS011;11619;50.140;8.518;2022-11-15T03:55:36;13.50;;;8.35;;
22904;SDS011;11619;50.140;8.518;2022-11-15T03:58:02;9.68;;;8.23;;
22904;SDS011;11619;50.140;8.518;2022-11-15T04:00:29;9.20;;;8.20;;
22904;SDS011;11619;50.140;8.518;2022-11-15T04:02:55;8.80;;;7.88;;
22904;SDS011;11619;50.140;8.518;2022-11-15T04:05:22;9.52;;;8.52;;
22904;SDS011;11619;50.140;8.518;2022-11-15T04:07:48;11.70;;;8.93;;
22904;SDS011;11619;50.140;8.518;2022-11-15T04:10:15;9.38;;;8.32;;
22904;SDS011;11619;50.140;8.518;2022-11-15T04:12:42;9.30;;;8.18;;
22904;SDS011;11619;50.140;8.518;2022-11-15T04:15:13;9.98;;;8.30;;
22904;SDS011;11619;50.140;8.518;2022-11-15T04:17:45;9.52;;;8.25;;
22904;SDS011;11619;50.140;8.518;2022-11-15T04:20:14;11.32;;;7.90;;
22904;SDS011;11619;50.140;8.518;2022-11-15T04:23:09;12.70;;;8.35;;
22904;SDS011;11619;50.140;8.518;2022-11-15T04:25:59;9.70;;;7.82;;
22904;SDS011;11619;50.140;8.518;2022-11-15T04:28:28;10.35;;;8.30;;
22904;SDS011;11619;50.140;8.518;2022-11-15T04:30:54;8.38;;;7.30;;
22904;SDS011;11619;50.140;8.518;2022-11-15T04:33:21;9.20;;;8.07;;
22904;SDS011;11619;50.140;8.518;2022-11-15T04:35:47;8.63;;;7.63;;
22904;SDS011;11619;50.140;8.518;2022-11-15T04:38:34;9.50;;;7.68;;
22904;SDS011;11619;50.140;8.518;2022-11-15T04:41:01;8.82;;;7.93;;
22904;SDS011;11619;50.140;8.518;2022-11-15T04:43:28;10.95;;;7.97;;
22904;SDS011;11619;50.140;8.518;2022-11-15T04:45:55;9.55;;;7.85;;
22904;SDS011;11619;50.140;8.518;2022-11-15T04:48:22;7.38;;;6.68;;
22904;SDS011;11619;50.140;8.518;2022-11-15T04:50:48;7.88;;;7.07;;
22904;SDS011;11619;50.140;8.518;2022-11-15T04:53:15;11.68;;;7.70;;
22904;SDS011;11619;50.140;8.518;2022-11-15T04:55:43;10.10;;;8.18;;
22904;SDS011;11619;50.140;8.518;2022-11-15T04:58:10;10.30;;;7.80;;
22904;SDS011;11619;50.140;8.518;2022-11-15T05:00:37;10.57;;;8.30;;
22904;SDS011;11619;50.140;8.518;2022-11-15T05:03:03;8.85;;;7.70;;
22904;SDS011;11619;50.140;8.518;2022-11-15T05:05:48;11.30;;;8.15;;
22904;SDS011;11619;50.140;8.518;2022-11-15T05:08:14;8.57;;;7.45;;
22904;SDS011;11619;50.140;8.518;2022-11-15T05:10:41;8.57;;;7.53;;
22904;SDS011;11619;50.140;8.518;2022-11-15T05:13:07;9.10;;;7.30;;
22904;SDS011;11619;50.140;8.518;2022-11-15T05:15:33;10.95;;;7.93;;
22904;SDS011;11619;50.140;8.518;2022-11-15T05:18:00;12.88;;;8.68;;
22904;SDS011;11619;50.140;8.518;2022-11-15T05:20:28;9.25;;;7.30;;
22904;SDS011;11619;50.140;8.518;2022-11-15T05:22:54;10.35;;;7.05;;
22904;SDS011;11619;50.140;8.518;2022-11-15T05:25:23;8.75;;;7.35;;
22904;SDS011;11619;50.140;8.518;2022-11-15T05:27:50;10.65;;;8.55;;
22904;SDS011;11619;50.140;8.518;2022-11-15T05:30:16;9.20;;;8.18;;
22904;SDS011;11619;50.140;8.518;2022-11-15T05:32:43;7.57;;;6.88;;
22904;SDS011;11619;50.140;8.518;2022-11-15T05:35:12;8.48;;;7.57;;
22904;SDS011;11619;50.140;8.518;2022-11-15T05:37:44;9.00;;;7.70;;
22904;SDS011;11619;50.140;8.518;2022-11-15T05:40:10;9.02;;;7.32;;
22904;SDS011;11619;50.140;8.518;2022-11-15T05:42:37;10.15;;;8.77;;
22904;SDS011;11619;50.140;8.518;2022-11-15T05:45:04;9.68;;;8.60;;
22904;SDS011;11619;50.140;8.518;2022-11-15T05:47:31;9.70;;;8.43;;
22904;SDS011;11619;50.140;8.518;2022-11-15T05:50:00;10.07;;;7.60;;
22904;SDS011;11619;50.140;8.518;2022-11-15T05:52:27;9.05;;;7.82;;
22904;SDS011;11619;50.140;8.518;2022-11-15T05:54:55;8.90;;;7.82;;
22904;SDS011;11619;50.140;8.518;2022-11-15T05:57:23;9.60;;;8.60;;
22904;SDS011;11619;50.140;8.518;2022-11-15T05:59:50;9.75;;;8.63;;
22904;SDS011;11619;50.140;8.518;2022-11-15T06:02:16;9.18;;;8.07;;
22904;SDS011;11619;50.140;8.518;2022-11-15T06:04:43;8.80;;;7.90;;
22904;SDS011;11619;50.140;8.518;2022-11-15T06:07:09;8.63;;;7.57;;
22904;SDS011;11619;50.140;8.518;2022-11-15T06:09:36;12.80;;;8.77;;
22904;SDS011;11619;50.140;8.518;2022-11-15T06:12:02;14.02;;;8.93;;
22904;SDS011;11619;50.140;8.518;2022-11-15T06:14:29;10.43;;;8.95;;
22904;SDS011;11619;50.140;8.518;2022-11-15T06:16:55;11.35;;;8.77;;
22904;SDS011;11619;50.140;8.518;2022-11-15T06:19:22;11.20;;;8.98;;
22904;SDS011;11619;50.140;8.518;2022-11-15T06:21:48;14.25;;;9.23;;
22904;SDS011;11619;50.140;8.518;2022-11-15T06:24:14;10.93;;;9.13;;
22904;SDS011;11619;50.140;8.518;2022-11-15T06:26:41;13.10;;;8.73;;
22904;SDS011;11619;50.140;8.518;2022-11-15T06:29:07;12.05;;;9.02;;
22904;SDS011;11619;50.140;8.518;2022-11-15T06:31:34;12.30;;;9.02;;
22904;SDS011;11619;50.140;8.518;2022-11-15T06:34:01;11.32;;;8.55;;
22904;SDS011;11619;50.140;8.518;2022-11-15T06:36:27;11.63;;;8.95;;
22904;SDS011;11619;50.140;8.518;2022-11-15T06:38:53;12.10;;;8.57;;
22904;SDS011;11619;50.140;8.518;2022-11-15T06:41:20;8.63;;;7.63;;
22904;SDS011;11619;50.140;8.518;2022-11-15T06:43:47;9.63;;;8.00;;
22904;SDS011;11619;50.140;8.518;2022-11-15T06:46:13;10.00;;;9.00;;
22904;SDS011;11619;50.140;8.518;2022-11-15T06:48:39;11.13;;;8.85;;
22904;SDS011;11619;50.140;8.518;2022-11-15T06:51:06;11.35;;;8.65;;
22904;SDS011;11619;50.140;8.518;2022-11-15T06:53:33;10.73;;;8.43;;
22904;SDS011;11619;50.140;8.518;2022-11-15T06:56:01;9.98;;;8.98;;
22904;SDS011;11619;50.140;8.518;2022-11-15T06:58:28;9.55;;;8.00;;
22904;SDS011;11619;50.140;8.518;2022-11-15T07:01:02;10.27;;;8.90;;
22904;SDS011;11619;50.140;8.518;2022-11-15T07:03:30;11.15;;;8.95;;
22904;SDS011;11619;50.140;8.518;2022-11-15T07:05:57;10.63;;;7.90;;
22904;SDS011;11619;50.140;8.518;2022-11-15T07:08:31;13.32;;;8.50;;
22904;SDS011;11619;50.140;8.518;2022-11-15T07:10:58;13.23;;;9.27;;
22904;SDS011;11619;50.140;8.518;2022-11-15T07:13:26;9.70;;;8.07;;
22904;SDS011;11619;50.140;8.518;2022-11-15T07:15:54;15.45;;;7.82;;
22904;SDS011;11619;50.140;8.518;2022-11-15T07:18:20;12.25;;;8.38;;
22904;SDS011;11619;50.140;8.518;2022-11-15T07:20:47;11.02;;;8.20;;
22904;SDS011;11619;50.140;8.518;2022-11-15T07:23:13;11.00;;;7.72;;
22904;SDS011;11619;50.140;8.518;2022-11-15T07:25:39;9.65;;;7.30;;
22904;SDS011;11619;50.140;8.518;2022-11-15T07:28:06;8.73;;;7.82;;
22904;SDS011;11619;50.140;8.518;2022-11-15T07:30:32;10.50;;;8.15;;
22904;SDS011;11619;50.140;8.518;2022-11-15T07:32:59;9.70;;;7.80;;
22904;SDS011;11619;50.140;8.518;2022-11-15T07:35:26;7.68;;;6.63;;
22904;SDS011;11619;50.140;8.518;2022-11-15T07:38:00;7.43;;;6.70;;
22904;SDS011;11619;50.140;8.518;2022-11-15T07:40:29;7.43;;;6.68;;
22904;SDS011;11619;50.140;8.518;2022-11-15T07:43:00;8.85;;;7.95;;
22904;SDS011;11619;50.140;8.518;2022-11-15T07:45:27;11.23;;;7.45;;
22904;SDS011;11619;50.140;8.518;2022-11-15T07:47:53;8.00;;;7.20;;
22904;SDS011;11619;50.140;8.518;2022-11-15T07:50:24;10.20;;;7.68;;
22904;SDS011;11619;50.140;8.518;2022-11-15T07:52:54;10.80;;;7.55;;
22904;SDS011;11619;50.140;8.518;2022-11-15T07:55:24;13.18;;;8.80;;
22904;SDS011;11619;50.140;8.518;2022-11-15T07:57:51;8.48;;;7.10;;
22904;SDS011;11619;50.140;8.518;2022-11-15T08:00:18;9.57;;;7.93;;
22904;SDS011;11619;50.140;8.518;2022-11-15T08:02:45;12.63;;;8.15;;
22904;SDS011;11619;50.140;8.518;2022-11-15T08:05:11;9.15;;;6.93;;
22904;SDS011;11619;50.140;8.518;2022-11-15T08:07:38;14.10;;;7.50;;
22904;SDS011;11619;50.140;8.518;2022-11-15T08:10:06;10.18;;;7.75;;
22904;SDS011;11619;50.140;8.518;2022-11-15T08:12:33;9.73;;;8.40;;
22904;SDS011;11619;50.140;8.518;2022-11-15T08:15:00;12.35;;;8.88;;
22904;SDS011;11619;50.140;8.518;2022-11-15T08:17:27;11.02;;;8.18;;
22904;SDS011;11619;50.140;8.518;2022-11-15T08:19:53;11.25;;;7.80;;
22904;SDS011;11619;50.140;8.518;2022-11-15T08:22:19;11.90;;;7.55;;
22904;SDS011;11619;50.140;8.518;2022-11-15T08:24:46;8.90;;;7.10;;
22904;SDS011;11619;50.140;8.518;2022-11-15T08:27:12;10.82;;;7.13;;
22904;SDS011;11619;50.140;8.518;2022-11-15T08:29:44;10.13;;;8.18;;
22904;SDS011;11619;50.140;8.518;2022-11-15T08:32:11;9.45;;;7.55;;
22904;SDS011;11619;50.140;8.518;2022-11-15T08:34:37;10.70;;;7.50;;
22904;SDS011;11619;50.140;8.518;2022-11-15T08:37:04;10.27;;;7.55;;
22904;SDS011;11619;50.140;8.518;2022-11-15T08:39:33;8.10;;;7.30;;
22904;SDS011;11619;50.140;8.518;2022-11-15T08:41:59;9.40;;;8.25;;
22904;SDS011;11619;50.140;8.518;2022-11-15T08:44:25;8.30;;;7.50;;
22904;SDS011;11619;50.140;8.518;2022-11-15T08:46:52;9.98;;;7.35;;
22904;SDS011;11619;50.140;8.518;2022-11-15T08:49:18;10.85;;;7.70;;
22904;SDS011;11619;50.140;8.518;2022-11-15T08:51:45;11.68;;;8.80;;
22904;SDS011;11619;50.140;8.518;2022-11-15T08:54:11;11.02;;;7.82;;
22904;SDS011;11619;50.140;8.518;2022-11-15T08:56:37;10.82;;;7.13;;
22904;SDS011;11619;50.140;8.518;2022-11-15T08:59:04;9.10;;;7.88;;
22904;SDS011;11619;50.140;8.518;2022-11-15T09:01:31;11.13;;;8.00;;
22904;SDS011;11619;50.140;8.518;2022-11-15T09:03:58;9.27;;;7.50;;
22904;SDS011;11619;50.140;8.518;2022-11-15T09:06:24;13.05;;;7.70;;
22904;SDS011;11619;50.140;8.518;2022-11-15T09:08:51;8.10;;;7.30;;
22904;SDS011;11619;50.140;8.518;2022-11-15T09:11:18;9.32;;;7.47;;
22904;SDS011;11619;50.140;8.518;2022-11-15T09:13:47;11.98;;;7.78;;
22904;SDS011;11619;50.140;8.518;2022-11-15T09:16:13;13.68;;;8.27;;
22904;SDS011;11619;50.140;8.518;2022-11-15T09:18:41;8.20;;;7.07;;
22904;SDS011;11619;50.140;8.518;2022-11-15T09:21:07;11.60;;;8.10;;
22904;SDS011;11619;50.140;8.518;2022-11-15T09:23:34;12.65;;;8.20;;
22904;SDS011;11619;50.140;8.518;2022-11-15T09:26:01;10.65;;;8.18;;
22904;SDS011;11619;50.140;8.518;2022-11-15T09:28:30;7.88;;;7.07;;
22904;SDS011;11619;50.140;8.518;2022-11-15T09:30:58;10.02;;;7.60;;
22904;SDS011;11619;50.140;8.518;2022-11-15T09:33:25;8.15;;;7.35;;
22904;SDS011;11619;50.140;8.518;2022-11-15T09:35:52;7.78;;;6.90;;
22904;SDS011;11619;50.140;8.518;2022-11-15T09:38:19;10.95;;;8.13;;
22904;SDS011;11619;50.140;8.518;2022-11-15T09:40:49;8.77;;;7.40;;
22904;SDS011;11619;50.140;8.518;2022-11-15T09:51:14;11.25;;;7.90;;
22904;SDS011;11619;50.140;8.518;2022-11-15T10:03:12;11.60;;;9.15;;
22904;SDS011;11619;50.140;8.518;2022-11-15T10:05:48;12.45;;;7.88;;
22904;SDS011;11619;50.140;8.518;2022-11-15T10:11:07;10.20;;;8.05;;
22904;SDS011;11619;50.140;8.518;2022-11-15T10:14:04;8.00;;;7.20;;
22904;SDS011;11619;50.140;8.518;2022-11-15T10:16:54;8.63;;;7.72;;
22904;SDS011;11619;50.140;8.518;2022-11-15T10:22:24;11.63;;;8.75;;
22904;SDS011;11619;50.140;8.518;2022-11-15T10:27:40;10.70;;;8.63;;
22904;SDS011;11619;50.140;8.518;2022-11-15T10:30:11;9.40;;;8.07;;
22904;SDS011;11619;50.140;8.518;2022-11-15T10:32:39;9.65;;;7.82;;
22904;SDS011;11619;50.140;8.518;2022-11-15T10:35:26;8.57;;;7.75;;
22904;SDS011;11619;50.140;8.518;2022-11-15T10:38:04;8.68;;;7.85;;
22904;SDS011;11619;50.140;8.518;2022-11-15T10:40:38;10.23;;;8.13;;
22904;SDS011;11619;50.140;8.518;2022-11-15T10:43:12;11.52;;;8.80;;
22904;SDS011;11619;50.140;8.518;2022-11-15T10:45:40;12.13;;;8.77;;
22904;SDS011;11619;50.140;8.518;2022-11-15T10:50:40;10.65;;;9.27;;
22904;SDS011;11619;50.140;8.518;2022-11-15T10:53:12;9.52;;;8.50;;
22904;SDS011;11619;50.140;8.518;2022-11-15T10:55:46;9.93;;;8.93;;
22904;SDS011;11619;50.140;8.518;2022-11-15T10:58:21;11.63;;;8.88;;
22904;SDS011;11619;50.140;8.518;2022-11-15T11:01:08;11.60;;;9.05;;
22904;SDS011;11619;50.140;8.518;2022-11-15T11:03:36;10.18;;;9.18;;
22904;SDS011;11619;50.140;8.518;2022-11-15T11:06:08;12.00;;;9.55;;
22904;SDS011;11619;50.140;8.518;2022-11-15T11:08:35;11.10;;;9.52;;
22904;SDS011;11619;50.140;8.518;2022-11-15T11:11:02;12.15;;;9.23;;
22904;SDS011;11619;50.140;8.518;2022-11-15T11:18:48;10.65;;;8.80;;
22904;SDS011;11619;50.140;8.518;2022-11-15T11:21:44;11.85;;;9.02;;
22904;SDS011;11619;50.140;8.518;2022-11-15T11:34:51;9.75;;;8.32;;
22904;SDS011;11619;50.140;8.518;2022-11-15T11:37:35;12.65;;;9.35;;
22904;SDS011;11619;50.140;8.518;2022-11-15T11:40:14;11.40;;;8.90;;
22904;SDS011;11619;50.140;8.518;2022-11-15T11:43:04;12.57;;;9.85;;
22904;SDS011;11619;50.140;8.518;2022-11-15T11:48:20;11.30;;;9.18;;
22904;SDS011;11619;50.140;8.518;2022-11-15T11:50:57;13.00;;;9.05;;
22904;SDS011;11619;50.140;8.518;2022-11-15T11:53:32;8.25;;;7.45;;
22904;SDS011;11619;50.140;8.518;2022-11-15T11:56:04;8.48;;;7.68;;
22904;SDS011;11619;50.140;8.518;2022-11-15T11:58:41;9.40;;;8.50;;
22904;SDS011;11619;50.140;8.518;2022-11-15T12:01:11;10.40;;;8.32;;
22904;SDS011;11619;50.140;8.518;2022-11-15T12:14:57;9.60;;;7.68;;
22904;SDS011;11619;50.140;8.518;2022-11-15T12:17:28;10.63;;;7.82;;
22904;SDS011;11619;50.140;8.518;2022-11-15T12:19:59;9.38;;;7.22;;
22904;SDS011;11619;50.140;8.518;2022-11-15T12:22:46;9.32;;;6.80;;
22904;SDS011;11619;50.140;8.518;2022-11-15T12:25:33;8.55;;;7.32;;
22904;SDS011;11619;50.140;8.518;2022-11-15T12:28:08;9.88;;;7.00;;
22904;SDS011;11619;50.140;8.518;2022-11-15T12:30:48;7.60;;;6.78;;
22904;SDS011;11619;50.140;8.518;2022-11-15T12:33:34;10.40;;;6.65;;
22904;SDS011;11619;50.140;8.518;2022-11-15T12:36:03;10.93;;;6.70;;
22904;SDS011;11619;50.140;8.518;2022-11-15T12:41:20;11.07;;;6.57;;
22904;SDS011;11619;50.140;8.518;2022-11-15T12:43:51;9.23;;;6.53;;
22904;SDS011;11619;50.140;8.518;2022-11-15T12:48:45;10.48;;;7.63;;
22904;SDS011;11619;50.140;8.518;2022-11-15T12:51:13;8.45;;;6.78;;
22904;SDS011;11619;50.140;8.518;2022-11-15T12:53:40;8.60;;;6.70;;
22904;SDS011;11619;50.140;8.518;2022-11-15T12:56:17;8.93;;;7.43;;
22904;SDS011;11619;50.140;8.518;2022-11-15T12:58:53;7.28;;;6.50;;
22904;SDS011;11619;50.140;8.518;2022-11-15T13:06:51;9.67;;;6.90;;
22904;SDS011;11619;50.140;8.518;2022-11-15T13:11:55;10.18;;;7.30;;
22904;SDS011;11619;50.140;8.518;2022-11-15T13:19:48;9.05;;;7.47;;
22904;SDS011;11619;50.140;8.518;2022-11-15T13:22:18;10.55;;;7.07;;
22904;SDS011;11619;50.140;8.518;2022-11-15T13:25:03;10.48;;;7.53;;
22904;SDS011;11619;50.140;8.518;2022-11-15T13:27:30;8.23;;;7.03;;
22904;SDS011;11619;50.140;8.518;2022-11-15T13:29:57;8.10;;;6.65;;
22904;SDS011;11619;50.140;8.518;2022-11-15T13:32:23;9.70;;;7.90;;
22904;SDS011;11619;50.140;8.518;2022-11-15T13:34:50;9.73;;;7.15;;
22904;SDS011;11619;50.140;8.518;2022-11-15T13:39:48;7.63;;;6.85;;
22904;SDS011;11619;50.140;8.518;2022-11-15T13:42:18;7.25;;;6.50;;
22904;SDS011;11619;50.140;8.518;2022-11-15T13:44:56;6.30;;;5.70;;
22904;SDS011;11619;50.140;8.518;2022-11-15T13:47:26;6.93;;;6.10;;
22904;SDS011;11619;50.140;8.518;2022-11-15T13:49:56;6.95;;;6.25;;
22904;SDS011;11619;50.140;8.518;2022-11-15T13:52:22;7.38;;;6.68;;
22904;SDS011;11619;50.140;8.518;2022-11-15T13:54:56;8.48;;;6.40;;
22904;SDS011;11619;50.140;8.518;2022-11-15T13:58:01;8.18;;;6.57;;
22904;SDS011;11619;50.140;8.518;2022-11-15T14:00:33;9.93;;;6.93;;
22904;SDS011;11619;50.140;8.518;2022-11-15T14:03:16;8.15;;;6.63;;
22904;SDS011;11619;50.140;8.518;2022-11-15T14:05:44;8.45;;;6.15;;
22904;SDS011;11619;50.140;8.518;2022-11-15T14:08:21;10.45;;;6.88;;
22904;SDS011;11619;50.140;8.518;2022-11-15T14:11:05;7.07;;;6.38;;
22904;SDS011;11619;50.140;8.518;2022-11-15T14:13:40;7.53;;;5.85;;
22904;SDS011;11619;50.140;8.518;2022-11-15T14:16:13;8.30;;;6.53;;
22904;SDS011;11619;50.140;8.518;2022-11-15T14:18:45;9.63;;;6.38;;
22904;SDS011;11619;50.140;8.518;2022-11-15T14:21:12;6.45;;;5.85;;
22904;SDS011;11619;50.140;8.518;2022-11-15T14:23:41;6.20;;;5.60;;
22904;SDS011;11619;50.140;8.518;2022-11-15T14:26:11;6.57;;;5.88;;
22904;SDS011;11619;50.140;8.518;2022-11-15T14:28:54;8.40;;;5.57;;
22904;SDS011;11619;50.140;8.518;2022-11-15T14:31:21;6.60;;;6.00;;
22904;SDS011;11619;50.140;8.518;2022-11-15T14:33:47;7.40;;;6.55;;
22904;SDS011;11619;50.140;8.518;2022-11-15T14:36:18;6.75;;;5.97;;
22904;SDS011;11619;50.140;8.518;2022-11-15T14:38:46;6.30;;;5.70;;
22904;SDS011;11619;50.140;8.518;2022-11-15T14:41:20;7.53;;;6.10;;
22904;SDS011;11619;50.140;8.518;2022-11-15T14:43:48;7.30;;;5.78;;
22904;SDS011;11619;50.140;8.518;2022-11-15T14:46:14;6.15;;;5.45;;
22904;SDS011;11619;50.140;8.518;2022-11-15T14:48:41;9.93;;;6.35;;
22904;SDS011;11619;50.140;8.518;2022-11-15T14:51:16;8.30;;;5.57;;
22904;SDS011;11619;50.140;8.518;2022-11-15T14:53:44;7.40;;;5.72;;
22904;SDS011;11619;50.140;8.518;2022-11-15T14:56:11;7.13;;;5.72;;
22904;SDS011;11619;50.140;8.518;2022-11-15T14:58:37;5.82;;;5.22;;
22904;SDS011;11619;50.140;8.518;2022-11-15T15:01:17;8.38;;;5.22;;
22904;SDS011;11619;50.140;8.518;2022-11-15T15:03:46;7.85;;;5.15;;
22904;SDS011;11619;50.140;8.518;2022-11-15T15:06:13;8.23;;;5.18;;
22904;SDS011;11619;50.140;8.518;2022-11-15T15:08:43;6.45;;;4.63;;
22904;SDS011;11619;50.140;8.518;2022-11-15T15:11:14;7.78;;;5.95;;
22904;SDS011;11619;50.140;8.518;2022-11-15T15:13:42;5.13;;;4.63;;
22904;SDS011;11619;50.140;8.518;2022-11-15T15:16:09;6.07;;;4.85;;
22904;SDS011;11619;50.140;8.518;2022-11-15T15:18:35;7.85;;;5.93;;
22904;SDS011;11619;50.140;8.518;2022-11-15T15:21:01;7.15;;;5.38;;
22904;SDS011;11619;50.140;8.518;2022-11-15T15:23:33;7.28;;;4.85;;
22904;SDS011;11619;50.140;8.518;2022-11-15T15:26:01;9.98;;;4.97;;
22904;SDS011;11619;50.140;8.518;2022-11-15T15:28:27;9.20;;;5.85;;
22904;SDS011;11619;50.140;8.518;2022-11-15T15:31:00;9.15;;;5.85;;
22904;SDS011;11619;50.140;8.518;2022-11-15T15:33:26;9.48;;;6.43;;
22904;SDS011;11619;50.140;8.518;2022-11-15T15:35:52;12.43;;;7.72;;
22904;SDS011;11619;50.140;8.518;2022-11-15T15:38:19;9.82;;;7.60;;
22904;SDS011;11619;50.140;8.518;2022-11-15T15:40:45;9.30;;;7.05;;
22904;SDS011;11619;50.140;8.518;2022-11-15T15:43:12;6.22;;;5.63;;
22904;SDS011;11619;50.140;8.518;2022-11-15T15:45:38;7.65;;;6.07;;
22904;SDS011;11619;50.140;8.518;2022-11-15T15:48:09;6.72;;;5.70;;
22904;SDS011;11619;50.140;8.518;2022-11-15T15:50:37;11.00;;;7.60;;
22904;SDS011;11619;50.140;8.518;2022-11-15T15:53:04;11.65;;;8.02;;
22904;SDS011;11619;50.140;8.518;2022-11-15T15:55:31;9.43;;;7.47;;
22904;SDS011;11619;50.140;8.518;2022-11-15T15:57:58;13.20;;;8.05;;
22904;SDS011;11619;50.140;8.518;2022-11-15T16:00:24;11.65;;;8.85;;
22904;SDS011;11619;50.140;8.518;2022-11-15T16:02:51;10.35;;;8.15;;
22904;SDS011;11619;50.140;8.518;2022-11-15T16:05:18;10.88;;;8.60;;
22904;SDS011;11619;50.140;8.518;2022-11-15T16:07:44;9.25;;;7.30;;
22904;SDS011;11619;50.140;8.518;2022-11-15T16:12:52;10.48;;;6.70;;
22904;SDS011;11619;50.140;8.518;2022-11-15T16:15:22;8.32;;;6.30;;
22904;SDS011;11619;50.140;8.518;2022-11-15T16:17:51;6.60;;;5.30;;
22904;SDS011;11619;50.140;8.518;2022-11-15T16:23:09;5.60;;;5.05;;
22904;SDS011;11619;50.140;8.518;2022-11-15T16:25:46;6.95;;;5.45;;
22904;SDS011;11619;50.140;8.518;2022-11-15T16:30:49;9.90;;;6.38;;
22904;SDS011;11619;50.140;8.518;2022-11-15T16:33:25;4.75;;;4.32;;
22904;SDS011;11619;50.140;8.518;2022-11-15T16:35:51;6.47;;;5.50;;
22904;SDS011;11619;50.140;8.518;2022-11-15T16:38:18;6.65;;;5.35;;
22904;SDS011;11619;50.140;8.518;2022-11-15T16:40:46;7.35;;;5.80;;
22904;SDS011;11619;50.140;8.518;2022-11-15T16:43:12;7.47;;;6.55;;
22904;SDS011;11619;50.140;8.518;2022-11-15T16:45:39;7.40;;;6.65;;